createdAt,value
2018-05-21T00:01:05.782Z,68.96
2018-05-21T00:03:31.511Z,69.20
2018-05-21T00:05:57.253Z,69.51
2018-05-21T00:08:22.974Z,69.17
2018-05-21T00:10:48.705Z,69.88
2018-05-21T00:13:14.432Z,69.99
2018-05-21T00:15:40.164Z,70.59
2018-05-21T00:18:05.887Z,70.93
2018-05-21T00:20:31.620Z,70.74
2018-05-21T00:22:57.343Z,70.42
2018-05-21T00:25:23.075Z,70.12
2018-05-21T00:27:48.801Z,69.89
2018-05-21T00:30:14.542Z,70.48
2018-05-21T00:32:40.277Z,70.25
2018-05-21T00:35:06.008Z,69.46
2018-05-21T00:37:31.734Z,69.68
2018-05-21T00:39:57.464Z,69.66
2018-05-21T00:42:23.188Z,69.97
2018-05-21T00:44:48.918Z,70.09
2018-05-21T00:47:14.632Z,70.82
2018-05-21T00:49:40.360Z,71.42
2018-05-21T00:52:06.081Z,71.50
2018-05-21T00:54:31.820Z,71.71
2018-05-21T00:56:57.560Z,71.46
2018-05-21T00:59:23.286Z,71.10
2018-05-21T01:01:56.082Z,71.11
2018-05-21T01:04:21.862Z,71.09
2018-05-21T01:06:47.600Z,71.06
2018-05-21T01:09:13.320Z,71.45
2018-05-21T01:11:39.058Z,70.82
2018-05-21T01:14:04.796Z,71.74
2018-05-21T01:16:30.540Z,71.62
2018-05-21T01:18:56.269Z,72.32
2018-05-21T01:21:21.997Z,71.82
2018-05-21T01:23:47.721Z,71.85
2018-05-21T01:26:13.446Z,72.38
2018-05-21T01:28:39.178Z,72.29
2018-05-21T01:31:04.921Z,72.72
2018-05-21T01:33:30.648Z,71.98
2018-05-21T01:35:56.420Z,72.29
2018-05-21T01:38:22.168Z,72.44
2018-05-21T01:40:47.908Z,71.55
2018-05-21T01:43:13.647Z,71.75
2018-05-21T01:45:39.375Z,71.82
2018-05-21T01:48:05.100Z,71.45
2018-05-21T01:50:30.832Z,71.67
2018-05-21T01:52:56.561Z,71.89
2018-05-21T01:55:22.311Z,72.20
2018-05-21T01:57:48.033Z,72.97
2018-05-21T02:00:13.775Z,74.08
2018-05-21T02:02:39.496Z,74.34
2018-05-21T02:05:05.230Z,74.45
2018-05-21T02:07:30.970Z,75.04
2018-05-21T02:09:56.701Z,75.17
2018-05-21T02:12:22.440Z,75.95
2018-05-21T02:14:48.179Z,74.62
2018-05-21T02:17:13.917Z,75.08
2018-05-21T02:19:39.657Z,76.42
2018-05-21T02:22:05.393Z,76.47
2018-05-21T02:24:31.116Z,77.02
2018-05-21T02:26:56.861Z,76.93
2018-05-21T02:29:22.585Z,76.24
2018-05-21T02:31:48.321Z,75.80
2018-05-21T02:34:14.048Z,76.40
2018-05-21T02:36:39.780Z,75.50
2018-05-21T02:39:05.515Z,75.77
2018-05-21T02:41:31.244Z,76.54
2018-05-21T02:43:56.968Z,75.82
2018-05-21T02:46:22.700Z,75.76
2018-05-21T02:48:48.450Z,77.12
2018-05-21T02:51:14.207Z,78.47
2018-05-21T02:53:39.943Z,77.78
2018-05-21T02:56:05.691Z,77.56
2018-05-21T02:58:31.420Z,77.50
2018-05-21T03:00:57.149Z,77.24
2018-05-21T03:03:22.864Z,77.21
2018-05-21T03:05:48.608Z,78.23
2018-05-21T03:08:14.328Z,78.14
2018-05-21T03:10:40.059Z,77.58
2018-05-21T03:13:05.788Z,77.64
2018-05-21T03:15:31.524Z,77.50
2018-05-21T03:17:57.260Z,78.00
2018-05-21T03:20:22.988Z,77.06
2018-05-21T03:22:48.720Z,77.47
2018-05-21T03:25:14.462Z,78.20
2018-05-21T03:27:40.217Z,78.70
2018-05-21T03:30:05.962Z,79.47
2018-05-21T03:32:31.708Z,79.56
2018-05-21T03:34:57.427Z,78.49
2018-05-21T03:37:23.338Z,77.95
2018-05-21T03:39:49.070Z,78.19
2018-05-21T03:42:14.864Z,78.42
2018-05-21T03:44:40.600Z,79.08
2018-05-21T03:47:06.341Z,79.26
2018-05-21T03:49:32.072Z,78.90
2018-05-21T03:51:57.823Z,78.26
2018-05-21T03:54:23.564Z,78.02
2018-05-21T03:56:49.320Z,77.78
2018-05-21T03:59:27.507Z,77.73
2018-05-21T04:02:05.839Z,77.50
2018-05-21T04:04:31.687Z,77.70
2018-05-21T04:06:57.328Z,77.44
2018-05-21T04:09:23.066Z,76.98
2018-05-21T04:11:48.824Z,77.40
2018-05-21T04:14:14.544Z,77.29
2018-05-21T04:16:40.289Z,76.89
2018-05-21T04:19:06.028Z,76.61
2018-05-21T04:21:31.777Z,76.80
2018-05-21T04:23:57.507Z,76.39
2018-05-21T04:26:23.259Z,76.53
2018-05-21T04:28:49.013Z,76.50
2018-05-21T04:31:14.796Z,76.48
2018-05-21T04:33:40.503Z,76.41
2018-05-21T04:36:06.237Z,76.58
2018-05-21T04:38:31.973Z,76.56
2018-05-21T04:40:57.707Z,76.87
2018-05-21T04:43:23.443Z,76.56
2018-05-21T04:45:49.179Z,76.89
2018-05-21T04:48:14.918Z,76.63
2018-05-21T04:50:40.648Z,76.35
2018-05-21T04:53:06.385Z,75.81
2018-05-21T04:55:32.140Z,76.79
2018-05-21T04:57:57.880Z,77.28
2018-05-21T05:00:23.612Z,77.03
2018-05-21T05:02:49.353Z,76.67
2018-05-21T05:05:15.096Z,76.78
2018-05-21T05:07:40.844Z,77.75
2018-05-21T05:10:06.585Z,77.93
2018-05-21T05:12:32.335Z,76.50
2018-05-21T05:14:58.075Z,76.72
2018-05-21T05:17:23.811Z,77.11
2018-05-21T05:19:49.540Z,78.03
2018-05-21T05:22:15.276Z,77.46
2018-05-21T05:24:41.005Z,76.80
2018-05-21T05:27:06.738Z,75.88
2018-05-21T05:29:32.472Z,75.55
2018-05-21T05:31:58.191Z,76.20
2018-05-21T05:34:23.932Z,74.97
2018-05-21T05:36:49.671Z,74.51
2018-05-21T05:39:15.408Z,74.18
2018-05-21T05:41:41.138Z,73.93
2018-05-21T05:44:06.881Z,73.42
2018-05-21T05:46:32.616Z,72.95
2018-05-21T05:48:58.372Z,72.90
2018-05-21T05:51:24.115Z,72.44
2018-05-21T05:53:49.856Z,72.81
2018-05-21T05:56:15.591Z,71.23
2018-05-21T05:58:41.337Z,71.23
2018-05-21T06:01:07.063Z,72.47
2018-05-21T06:03:32.847Z,70.05
2018-05-21T06:05:58.543Z,69.75
2018-05-21T06:08:24.291Z,68.22
2018-05-21T06:10:50.029Z,68.91
2018-05-21T06:13:15.784Z,68.87
2018-05-21T06:15:41.536Z,68.25
2018-05-21T06:18:07.291Z,67.83
2018-05-21T06:20:33.025Z,67.34
2018-05-21T06:22:58.779Z,67.98
2018-05-21T06:25:24.541Z,66.64
2018-05-21T06:27:50.289Z,65.59
2018-05-21T06:30:16.013Z,65.24
2018-05-21T06:32:41.761Z,65.62
2018-05-21T06:35:07.491Z,66.01
2018-05-21T06:37:33.224Z,65.54
2018-05-21T06:39:58.959Z,64.59
2018-05-21T06:42:24.693Z,66.46
2018-05-21T06:44:50.439Z,64.26
2018-05-21T06:47:16.167Z,64.34
2018-05-21T06:49:41.904Z,64.03
2018-05-21T06:52:07.632Z,64.01
2018-05-21T06:54:33.376Z,63.72
2018-05-21T06:56:59.100Z,62.37
2018-05-21T06:59:24.840Z,62.94
2018-05-21T07:01:50.572Z,64.98
2018-05-21T07:04:16.317Z,62.09
2018-05-21T07:06:42.054Z,61.40
2018-05-21T07:09:07.804Z,59.91
2018-05-21T07:11:33.535Z,60.51
2018-05-21T07:13:59.292Z,59.26
2018-05-21T07:16:25.020Z,57.30
2018-05-21T07:18:50.757Z,57.00
2018-05-21T07:21:16.479Z,58.63
2018-05-21T07:23:42.220Z,55.96
2018-05-21T07:26:07.944Z,56.60
2018-05-21T07:28:33.698Z,54.17
2018-05-21T07:31:05.472Z,55.01
2018-05-21T07:33:31.221Z,53.42
2018-05-21T07:35:56.953Z,53.47
2018-05-21T07:38:22.699Z,52.73
2018-05-21T07:40:48.436Z,51.51
2018-05-21T07:43:14.220Z,51.19
2018-05-21T07:45:39.956Z,49.93
2018-05-21T07:48:05.718Z,49.48
2018-05-21T07:50:31.461Z,47.48
2018-05-21T07:52:57.188Z,47.11
2018-05-21T07:55:23.009Z,46.76
2018-05-21T07:57:48.714Z,48.46
2018-05-21T08:00:14.475Z,47.79
2018-05-21T08:02:40.209Z,46.89
2018-05-21T08:05:05.977Z,45.87
2018-05-21T08:07:31.711Z,44.66
2018-05-21T08:09:57.468Z,44.71
2018-05-21T08:12:23.213Z,44.41
2018-05-21T08:14:49.048Z,42.72
2018-05-21T08:17:14.755Z,44.10
2018-05-21T08:19:40.513Z,42.53
2018-05-21T08:22:06.283Z,41.66
2018-05-21T08:24:32.024Z,40.46
2018-05-21T08:26:57.759Z,42.11
2018-05-21T08:29:23.505Z,43.57
2018-05-21T08:31:49.267Z,45.20
2018-05-21T08:34:14.999Z,42.27
2018-05-21T08:36:40.740Z,40.72
2018-05-21T08:39:06.500Z,40.00
2018-05-21T08:41:32.248Z,39.99
2018-05-21T08:43:58.000Z,40.60
2018-05-21T08:46:23.769Z,40.21
2018-05-21T08:48:49.605Z,37.81
2018-05-21T08:51:15.272Z,36.56
2018-05-21T08:53:41.025Z,35.48
2018-05-21T08:56:06.764Z,35.24
2018-05-21T08:58:32.504Z,35.27
2018-05-21T09:00:58.245Z,34.53
2018-05-21T09:03:23.964Z,32.66
2018-05-21T09:05:49.708Z,33.42
2018-05-21T09:08:15.452Z,33.97
2018-05-21T09:10:41.205Z,33.17
2018-05-21T09:13:06.963Z,33.37
2018-05-21T09:15:32.688Z,32.67
2018-05-21T09:17:58.412Z,33.31
2018-05-21T09:20:24.152Z,33.28
2018-05-21T09:22:49.886Z,33.66
2018-05-21T09:25:15.638Z,33.40
2018-05-21T09:27:41.372Z,34.50
2018-05-21T09:30:07.105Z,33.38
2018-05-21T09:32:32.944Z,32.00
2018-05-21T09:34:58.585Z,31.96
2018-05-21T09:37:24.324Z,31.68
2018-05-21T09:39:50.062Z,31.78
2018-05-21T09:42:15.788Z,31.91
2018-05-21T09:44:41.524Z,31.71
2018-05-21T09:47:07.259Z,31.59
2018-05-21T09:49:32.996Z,32.01
2018-05-21T09:51:58.732Z,31.95
2018-05-21T09:54:24.492Z,31.65
2018-05-21T09:56:50.232Z,31.50
2018-05-21T09:59:15.968Z,31.91
2018-05-21T10:01:43.037Z,33.17
2018-05-21T10:04:08.773Z,32.42
2018-05-21T10:06:34.517Z,32.48
2018-05-21T10:09:00.281Z,32.35
2018-05-21T10:11:26.012Z,31.16
2018-05-21T10:13:51.760Z,31.75
2018-05-21T10:16:17.496Z,29.92
2018-05-21T10:18:43.224Z,31.01
2018-05-21T10:21:08.957Z,30.49
2018-05-21T10:23:34.700Z,29.44
2018-05-21T10:26:00.483Z,30.03
2018-05-21T10:28:26.171Z,28.88
2018-05-21T10:30:51.929Z,30.15
2018-05-21T10:33:17.660Z,29.22
2018-05-21T10:35:43.387Z,28.28
2018-05-21T10:38:09.118Z,28.26
2018-05-21T10:40:34.840Z,28.15
2018-05-21T10:43:00.568Z,27.39
2018-05-21T10:45:26.313Z,27.48
2018-05-21T10:47:52.054Z,27.51
2018-05-21T10:50:17.791Z,26.55
2018-05-21T10:52:43.520Z,27.67
2018-05-21T10:55:09.276Z,27.25
2018-05-21T10:57:35.030Z,26.96
2018-05-21T11:00:00.790Z,27.26
2018-05-21T11:02:26.543Z,27.29
2018-05-21T11:04:52.283Z,27.42
2018-05-21T11:07:18.040Z,27.15
2018-05-21T11:09:43.793Z,26.70
2018-05-21T11:12:09.544Z,27.67
2018-05-21T11:14:35.296Z,26.81
2018-05-21T11:17:01.043Z,26.93
2018-05-21T11:19:26.809Z,27.11
2018-05-21T11:21:52.571Z,27.01
2018-05-21T11:24:18.316Z,25.89
2018-05-21T11:26:44.065Z,26.83
2018-05-21T11:29:09.883Z,26.57
2018-05-21T11:31:35.683Z,27.11
2018-05-21T11:34:01.421Z,27.21
2018-05-21T11:36:27.276Z,26.56
2018-05-21T11:38:53.025Z,28.45
2018-05-21T11:41:18.805Z,28.04
2018-05-21T11:43:44.557Z,29.48
2018-05-21T11:46:10.299Z,28.86
2018-05-21T11:48:36.044Z,29.84
2018-05-21T11:51:01.801Z,29.17
2018-05-21T11:53:27.541Z,29.53
2018-05-21T11:55:53.288Z,30.51
2018-05-21T11:58:19.584Z,27.75
2018-05-21T12:00:45.329Z,28.56
2018-05-21T12:03:11.078Z,27.69
2018-05-21T12:05:36.819Z,28.53
2018-05-21T12:08:02.553Z,28.53
2018-05-21T12:10:28.311Z,30.07
2018-05-21T12:12:54.052Z,29.74
2018-05-21T12:15:19.805Z,29.59
2018-05-21T12:17:45.551Z,28.48
2018-05-21T12:20:11.324Z,28.56
2018-05-21T12:22:38.590Z,28.19
2018-05-21T12:25:05.853Z,28.67
2018-05-21T12:27:33.025Z,28.27
2018-05-21T12:29:59.935Z,30.96
2018-05-21T12:32:27.155Z,30.37
2018-05-21T12:34:54.124Z,30.30
2018-05-21T12:37:21.512Z,31.30
2018-05-21T12:39:48.248Z,30.44
2018-05-21T12:42:15.075Z,30.90
2018-05-21T12:44:43.344Z,32.44
2018-05-21T12:47:10.530Z,30.15
2018-05-21T12:49:39.328Z,29.19
2018-05-21T12:52:06.579Z,30.26
2018-05-21T12:54:34.255Z,29.90
2018-05-21T12:57:01.736Z,32.18
2018-05-21T12:59:28.825Z,32.58
2018-05-21T13:01:56.828Z,32.81
2018-05-21T13:04:24.246Z,32.96
2018-05-21T13:06:51.885Z,32.42
2018-05-21T13:09:20.288Z,32.13
2018-05-21T13:11:48.041Z,32.53
2018-05-21T13:14:15.171Z,31.64
2018-05-21T13:16:42.476Z,33.07
2018-05-21T13:19:10.079Z,33.00
2018-05-21T13:21:37.148Z,33.26
2018-05-21T13:24:04.016Z,33.71
2018-05-21T13:26:32.002Z,35.20
2018-05-21T13:28:58.462Z,35.47
2018-05-21T13:31:25.552Z,34.55
2018-05-21T13:33:53.105Z,34.55
2018-05-21T13:36:20.813Z,33.08
2018-05-21T13:38:48.095Z,34.21
2018-05-21T13:41:15.901Z,33.95
2018-05-21T13:43:42.636Z,34.55
2018-05-21T13:46:09.622Z,34.47
2018-05-21T13:48:36.749Z,34.95
2018-05-21T13:51:03.911Z,34.79
2018-05-21T13:53:31.717Z,35.48
2018-05-21T13:55:57.549Z,34.98
2018-05-21T13:58:23.292Z,35.08
2018-05-21T14:00:49.020Z,34.49
2018-05-21T14:03:14.768Z,34.38
2018-05-21T14:05:40.514Z,35.60
2018-05-21T14:08:06.256Z,37.41
2018-05-21T14:10:32.006Z,38.26
2018-05-21T14:12:57.760Z,38.83
2018-05-21T14:15:23.503Z,39.06
2018-05-21T14:17:49.257Z,38.30
2018-05-21T14:20:14.993Z,38.18
2018-05-21T14:22:40.743Z,38.64
2018-05-21T14:25:06.505Z,38.48
2018-05-21T14:27:32.259Z,38.67
2018-05-21T14:29:58.000Z,37.97
2018-05-21T14:32:23.745Z,38.05
2018-05-21T14:34:49.483Z,38.02
2018-05-21T14:37:15.232Z,38.38
2018-05-21T14:39:40.960Z,38.52
2018-05-21T14:42:06.710Z,39.08
2018-05-21T14:44:32.455Z,38.77
2018-05-21T14:46:58.213Z,39.98
2018-05-21T14:49:23.942Z,39.62
2018-05-21T14:51:49.728Z,39.45
2018-05-21T14:54:15.492Z,39.62
2018-05-21T14:56:41.244Z,39.74
2018-05-21T14:59:06.988Z,39.72
2018-05-21T15:01:32.740Z,39.95
2018-05-21T15:03:58.512Z,39.14
2018-05-21T15:06:24.224Z,39.87
2018-05-21T15:08:49.992Z,39.99
2018-05-21T15:11:15.839Z,40.52
2018-05-21T15:13:42.097Z,40.00
2018-05-21T15:16:07.927Z,40.18
2018-05-21T15:18:34.051Z,40.42
2018-05-21T15:21:00.847Z,40.98
2018-05-21T15:23:27.222Z,39.77
2018-05-21T15:25:53.318Z,39.92
2018-05-21T15:28:19.098Z,39.85
2018-05-21T15:30:45.338Z,40.07
2018-05-21T15:33:11.597Z,40.10
2018-05-21T15:35:37.742Z,39.91
2018-05-21T15:38:03.954Z,40.58
2018-05-21T15:40:30.483Z,39.74
2018-05-21T15:42:56.338Z,40.30
2018-05-21T15:45:22.283Z,39.79
2018-05-21T15:47:49.276Z,39.88
2018-05-21T15:50:15.339Z,39.85
2018-05-21T15:52:41.656Z,40.61
2018-05-21T15:55:07.432Z,40.79
2018-05-21T15:57:34.517Z,40.26
2018-05-21T16:00:00.734Z,40.65
2018-05-21T16:02:26.497Z,40.82
2018-05-21T16:04:52.311Z,41.57
2018-05-21T16:07:19.625Z,40.56
2018-05-21T16:09:48.049Z,41.06
2018-05-21T16:12:14.420Z,40.60
2018-05-21T16:14:42.397Z,41.64
2018-05-21T16:17:08.148Z,42.05
2018-05-21T16:19:33.901Z,42.41
2018-05-21T16:22:00.910Z,42.24
2018-05-21T16:24:27.268Z,42.44
2018-05-21T16:26:53.467Z,42.53
2018-05-21T16:29:19.770Z,43.13
2018-05-21T16:31:45.985Z,43.30
2018-05-21T16:34:11.802Z,43.15
2018-05-21T16:36:37.528Z,43.07
2018-05-21T16:39:03.284Z,43.34
2018-05-21T16:41:29.108Z,43.68
2018-05-21T16:43:54.760Z,43.71
2018-05-21T16:46:20.495Z,43.60
2018-05-21T16:48:46.240Z,43.76
2018-05-21T16:51:11.987Z,43.73
2018-05-21T16:53:37.744Z,44.02
2018-05-21T16:56:03.773Z,44.64
2018-05-21T16:58:29.515Z,44.35
2018-05-21T17:00:55.259Z,44.47
2018-05-21T17:03:21.009Z,44.37
2018-05-21T17:05:46.787Z,44.39
2018-05-21T17:08:12.528Z,44.77
2018-05-21T17:10:38.272Z,44.98
2018-05-21T17:13:04.031Z,44.52
2018-05-21T17:15:29.784Z,45.05
2018-05-21T17:17:55.516Z,45.11
2018-05-21T17:20:21.330Z,45.23
2018-05-21T17:22:47.014Z,45.11
2018-05-21T17:25:12.772Z,44.97
2018-05-21T17:27:38.574Z,45.47
2018-05-21T17:30:04.316Z,45.00
2018-05-21T17:32:30.054Z,45.03
2018-05-21T17:34:55.791Z,44.74
2018-05-21T17:37:21.517Z,44.76
2018-05-21T17:39:47.271Z,44.68
2018-05-21T17:42:12.999Z,44.46
2018-05-21T17:44:38.743Z,44.79
2018-05-21T17:47:04.481Z,44.87
2018-05-21T17:49:30.216Z,45.08
2018-05-21T17:51:55.967Z,45.33
2018-05-21T17:54:28.879Z,44.82
2018-05-21T17:56:54.609Z,44.99
2018-05-21T17:59:20.347Z,45.80
2018-05-21T18:01:46.155Z,45.24
2018-05-21T18:04:11.860Z,45.20
2018-05-21T18:06:37.588Z,45.31
2018-05-21T18:09:03.348Z,45.92
2018-05-21T18:11:29.071Z,45.76
2018-05-21T18:13:54.824Z,45.93
2018-05-21T18:16:20.576Z,46.21
2018-05-21T18:18:46.383Z,46.30
2018-05-21T18:21:12.061Z,46.09
2018-05-21T18:23:37.792Z,46.54
2018-05-21T18:26:03.528Z,47.12
2018-05-21T18:28:29.269Z,47.09
2018-05-21T18:30:55.014Z,46.85
2018-05-21T18:33:20.752Z,46.65
2018-05-21T18:35:46.565Z,47.07
2018-05-21T18:38:12.232Z,47.49
2018-05-21T18:40:37.968Z,47.68
2018-05-21T18:43:03.774Z,47.20
2018-05-21T18:45:29.524Z,47.27
2018-05-21T18:47:55.435Z,47.88
2018-05-21T18:50:21.189Z,48.38
2018-05-21T18:52:46.927Z,48.79
2018-05-21T18:55:12.680Z,49.60
2018-05-21T18:57:38.405Z,49.86
2018-05-21T19:00:04.182Z,50.04
2018-05-21T19:02:29.880Z,50.49
2018-05-21T19:04:55.628Z,50.06
2018-05-21T19:07:21.353Z,50.32
2018-05-21T19:09:47.108Z,50.45
2018-05-21T19:12:12.822Z,50.94
2018-05-21T19:14:38.573Z,51.18
2018-05-21T19:17:04.292Z,51.32
2018-05-21T19:19:30.037Z,51.73
2018-05-21T19:21:55.758Z,51.79
2018-05-21T19:24:21.500Z,51.98
2018-05-21T19:26:47.229Z,52.23
2018-05-21T19:29:12.978Z,52.55
2018-05-21T19:31:38.723Z,52.79
2018-05-21T19:34:04.453Z,53.33
2018-05-21T19:36:30.192Z,53.41
2018-05-21T19:38:55.935Z,53.81
2018-05-21T19:41:21.676Z,54.23
2018-05-21T19:43:47.409Z,54.70
2018-05-21T19:46:13.159Z,54.97
2018-05-21T19:48:38.920Z,55.13
2018-05-21T19:51:04.665Z,55.30
2018-05-21T19:53:30.399Z,55.82
2018-05-21T19:55:56.145Z,56.06
2018-05-21T19:58:21.868Z,56.82
2018-05-21T20:00:47.609Z,57.47
2018-05-21T20:03:13.348Z,57.83
2018-05-21T20:05:39.084Z,58.18
2018-05-21T20:08:04.816Z,58.29
2018-05-21T20:10:30.568Z,58.86
2018-05-21T20:12:56.283Z,59.08
2018-05-21T20:15:22.037Z,59.17
2018-05-21T20:17:47.785Z,59.51
2018-05-21T20:20:13.534Z,59.77
2018-05-21T20:22:39.280Z,60.16
2018-05-21T20:25:05.028Z,60.47
2018-05-21T20:27:30.763Z,60.53
2018-05-21T20:29:56.493Z,61.19
2018-05-21T20:32:22.304Z,61.21
2018-05-21T20:34:48.056Z,61.52
2018-05-21T20:37:13.843Z,61.96
2018-05-21T20:39:39.524Z,62.43
2018-05-21T20:42:05.266Z,62.91
2018-05-21T20:44:30.988Z,62.82
2018-05-21T20:46:56.728Z,63.08
2018-05-21T20:49:22.444Z,63.24
2018-05-21T20:51:48.203Z,63.98
2018-05-21T20:54:13.937Z,64.19
2018-05-21T20:56:39.681Z,64.48
2018-05-21T20:59:05.409Z,64.90
2018-05-21T21:01:31.200Z,64.75
2018-05-21T21:03:56.927Z,65.26
2018-05-21T21:06:22.852Z,65.78
2018-05-21T21:08:48.643Z,65.55
2018-05-21T21:11:14.372Z,65.80
2018-05-21T21:13:40.137Z,66.39
2018-05-21T21:16:05.875Z,65.89
2018-05-21T21:18:32.027Z,66.11
2018-05-21T21:20:57.808Z,65.62
2018-05-21T21:23:23.607Z,65.67
2018-05-21T21:25:49.312Z,66.02
2018-05-21T21:28:16.041Z,65.86
2018-05-21T21:30:41.788Z,66.58
2018-05-21T21:33:07.520Z,66.35
2018-05-21T21:35:33.256Z,66.33
2018-05-21T21:37:58.991Z,65.88
2018-05-21T21:40:24.741Z,65.89
2018-05-21T21:42:50.463Z,65.66
2018-05-21T21:45:16.186Z,65.80
2018-05-21T21:47:41.988Z,65.29
2018-05-21T21:50:09.764Z,65.74
2018-05-21T21:52:35.523Z,65.29
2018-05-21T21:55:01.348Z,65.32
2018-05-21T21:57:27.247Z,65.45
2018-05-21T21:59:52.975Z,65.50
2018-05-21T22:02:18.740Z,65.98
2018-05-21T22:04:44.471Z,65.89
2018-05-21T22:07:10.212Z,66.04
2018-05-21T22:09:36.691Z,66.16
2018-05-21T22:12:02.448Z,65.79
2018-05-21T22:14:28.180Z,66.27
2018-05-21T22:16:54.015Z,66.09
2018-05-21T22:19:19.767Z,66.21
2018-05-21T22:21:45.503Z,66.25
2018-05-21T22:24:11.227Z,67.09
2018-05-21T22:26:36.971Z,67.32
2018-05-21T22:29:02.692Z,67.92
2018-05-21T22:31:28.431Z,68.10
2018-05-21T22:33:54.161Z,68.52
2018-05-21T22:36:19.896Z,68.68
2018-05-21T22:38:45.640Z,68.74
2018-05-21T22:41:11.380Z,68.04
2018-05-21T22:43:37.099Z,68.42
2018-05-21T22:46:02.839Z,68.45
2018-05-21T22:48:28.563Z,68.77
2018-05-21T22:50:54.304Z,68.98
2018-05-21T22:53:20.041Z,69.32
2018-05-21T22:55:45.765Z,69.08
2018-05-21T22:58:11.516Z,69.52
2018-05-21T23:00:37.252Z,69.87
2018-05-21T23:03:02.996Z,69.83
2018-05-21T23:05:29.528Z,70.05
2018-05-21T23:07:55.275Z,70.21
2018-05-21T23:10:21.007Z,70.98
2018-05-21T23:12:46.743Z,70.91
2018-05-21T23:15:12.480Z,70.80
2018-05-21T23:17:38.225Z,71.11
2018-05-21T23:20:03.956Z,70.95
2018-05-21T23:22:49.500Z,71.33
2018-05-21T23:25:15.241Z,71.67
2018-05-21T23:27:40.969Z,71.85
2018-05-21T23:30:06.701Z,72.34
2018-05-21T23:32:32.444Z,72.34
2018-05-21T23:34:58.168Z,72.49
2018-05-21T23:37:23.905Z,72.60
2018-05-21T23:39:49.628Z,72.80
2018-05-21T23:42:15.367Z,72.44
2018-05-21T23:44:41.093Z,72.35
2018-05-21T23:47:06.840Z,72.77
2018-05-21T23:49:32.572Z,73.37
2018-05-21T23:51:58.309Z,73.21
2018-05-21T23:54:24.031Z,73.49
2018-05-21T23:56:49.773Z,73.53
2018-05-21T23:59:15.491Z,73.93
